createdAt,value
2023-04-13T00:01:01.691Z,99111.03
2023-04-13T00:03:33.495Z,99109.38
2023-04-13T00:06:03.124Z,99105.66
2023-04-13T00:08:31.877Z,99096.97
2023-04-13T00:11:00.043Z,99100.47
2023-04-13T00:13:28.035Z,99088.59
2023-04-13T00:15:57.057Z,99089.69
2023-04-13T00:18:26.437Z,99084.28
2023-04-13T00:20:54.435Z,99080.78
2023-04-13T00:23:22.445Z,99088.06
2023-04-13T00:25:51.264Z,99080.50
2023-04-13T00:28:19.509Z,99077.81
2023-04-13T00:30:47.556Z,99084.88
2023-04-13T00:33:15.982Z,99084.88
2023-04-13T00:35:45.643Z,99083.22
2023-04-13T00:38:13.874Z,99077.81
2023-04-13T00:40:41.807Z,99079.47
2023-04-13T00:43:09.831Z,99088.59
2023-04-13T00:45:39.182Z,99094.00
2023-04-13T00:48:08.957Z,99088.59
2023-04-13T00:50:36.982Z,99085.91
2023-04-13T00:53:09.672Z,99095.66
2023-04-13T00:55:39.561Z,99087.78
2023-04-13T00:58:07.969Z,99086.97
2023-04-13T01:00:39.229Z,99091.56
2023-04-13T01:03:07.987Z,99089.69
2023-04-13T01:05:38.321Z,99097.78
2023-04-13T01:08:11.437Z,99090.75
2023-04-13T01:10:40.929Z,99096.16
2023-04-13T01:13:12.259Z,99092.38
2023-04-13T01:15:46.311Z,99090.75
2023-04-13T01:18:15.696Z,99089.09
2023-04-13T01:20:46.496Z,99092.66
2023-04-13T01:23:24.719Z,99090.75
2023-04-13T01:25:58.027Z,99091.81
2023-04-13T01:28:30.158Z,99089.69
2023-04-13T01:30:58.731Z,99085.38
2023-04-13T01:33:30.533Z,99081.59
2023-04-13T01:36:00.771Z,99078.06
2023-04-13T01:38:28.711Z,99077.00
2023-04-13T01:40:57.321Z,99074.31
2023-04-13T01:43:25.304Z,99073.25
2023-04-13T01:46:00.940Z,99075.09
2023-04-13T01:48:30.909Z,99083.22
2023-04-13T01:50:59.978Z,99085.09
2023-04-13T01:53:30.263Z,99079.97
2023-04-13T01:55:58.332Z,99081.59
2023-04-13T01:58:28.164Z,99078.88
2023-04-13T02:00:57.816Z,99091.56
2023-04-13T02:03:25.772Z,99076.44
2023-04-13T02:05:53.693Z,99075.38
2023-04-13T02:08:21.864Z,99075.38
2023-04-13T02:10:50.195Z,99078.88
2023-04-13T02:13:18.099Z,99062.97
2023-04-13T02:15:46.244Z,99068.34
2023-04-13T02:18:15.621Z,99065.38
2023-04-13T02:20:46.134Z,99071.88
2023-04-13T02:23:15.339Z,99079.97
2023-04-13T02:25:47.596Z,99072.91
2023-04-13T02:28:17.714Z,99061.31
2023-04-13T02:30:46.154Z,99066.69
2023-04-13T02:33:15.611Z,99064.00
2023-04-13T02:35:43.769Z,99063.78
2023-04-13T02:38:11.814Z,99064.28
2023-04-13T02:40:39.856Z,99060.00
2023-04-13T02:43:07.843Z,99047.56
2023-04-13T02:45:35.782Z,99047.56
2023-04-13T02:48:04.927Z,99051.31
2023-04-13T02:50:34.300Z,99051.09
2023-04-13T02:53:02.329Z,99046.75
2023-04-13T02:55:30.276Z,99045.91
2023-04-13T02:57:59.622Z,99046.75
2023-04-13T03:00:28.727Z,99047.00
2023-04-13T03:02:56.812Z,99049.69
2023-04-13T03:05:25.120Z,99060.50
2023-04-13T03:07:57.079Z,99061.31
2023-04-13T03:10:25.117Z,99051.59
2023-04-13T03:12:53.639Z,99054.00
2023-04-13T03:15:21.924Z,99051.81
2023-04-13T03:17:49.967Z,99051.81
2023-04-13T03:20:20.962Z,99048.31
2023-04-13T03:22:48.887Z,99051.25
2023-04-13T03:25:18.336Z,99056.41
2023-04-13T03:27:46.410Z,99052.31
2023-04-13T03:30:14.704Z,99059.34
2023-04-13T03:32:52.477Z,99061.00
2023-04-13T03:35:20.571Z,99059.91
2023-04-13T03:37:48.618Z,99065.31
2023-04-13T03:40:17.977Z,99059.34
2023-04-13T03:42:46.017Z,99059.09
2023-04-13T03:45:13.918Z,99062.63
2023-04-13T03:47:41.950Z,99060.72
2023-04-13T03:50:10.911Z,99058.03
2023-04-13T03:52:38.813Z,99052.09
2023-04-13T03:55:07.182Z,99059.34
2023-04-13T03:57:37.079Z,99056.63
2023-04-13T04:00:07.334Z,99063.44
2023-04-13T04:02:35.432Z,99056.41
2023-04-13T04:05:03.640Z,99051.81
2023-04-13T04:07:31.688Z,99066.38
2023-04-13T04:10:12.268Z,99062.31
2023-04-13T04:12:41.744Z,99057.72
2023-04-13T04:15:10.480Z,99048.00
2023-04-13T04:17:40.002Z,99046.34
2023-04-13T04:20:10.327Z,99049.03
2023-04-13T04:22:38.484Z,99040.94
2023-04-13T04:25:07.247Z,99038.25
2023-04-13T04:27:38.489Z,99043.66
2023-04-13T04:30:10.881Z,99046.09
2023-04-13T04:32:40.653Z,99046.09
2023-04-13T04:35:09.855Z,99046.91
2023-04-13T04:37:38.989Z,99049.69
2023-04-13T04:40:09.650Z,99039.47
2023-04-13T04:42:38.495Z,99040.03
2023-04-13T04:45:10.568Z,99051.66
2023-04-13T04:47:42.197Z,99046.25
2023-04-13T04:50:11.206Z,99044.94
2023-04-13T04:52:39.304Z,99037.91
2023-04-13T04:55:13.421Z,99029.22
2023-04-13T04:57:41.442Z,99033.81
2023-04-13T05:00:15.537Z,99029.50
2023-04-13T05:02:44.411Z,99025.97
2023-04-13T05:05:12.915Z,99029.72
2023-04-13T05:07:40.833Z,99025.97
2023-04-13T05:10:10.243Z,99020.59
2023-04-13T05:12:38.323Z,99024.31
2023-04-13T05:15:07.739Z,99020.59
2023-04-13T05:17:37.429Z,99022.19
2023-04-13T05:20:06.958Z,99018.94
2023-04-13T05:22:34.977Z,99023.50
2023-04-13T05:25:02.987Z,99024.31
2023-04-13T05:29:59.057Z,99025.97
2023-04-13T05:32:27.131Z,99022.19
2023-04-13T05:34:56.505Z,99021.13
2023-04-13T05:37:24.489Z,99020.09
2023-04-13T05:39:52.434Z,99012.78
2023-04-13T05:42:20.571Z,99019.56
2023-04-13T05:44:48.492Z,99033.06
2023-04-13T05:47:17.090Z,99021.19
2023-04-13T05:49:45.040Z,99026.59
2023-04-13T05:52:14.273Z,99020.16
2023-04-13T05:54:42.249Z,99021.19
2023-04-13T05:57:10.215Z,99016.38
2023-04-13T05:59:38.471Z,99009.66
2023-04-13T06:02:06.506Z,99012.13
2023-04-13T06:04:35.027Z,99017.03
2023-04-13T06:07:03.214Z,99015.41
2023-04-13T06:09:32.625Z,99018.91
2023-04-13T06:12:00.637Z,99023.00
2023-04-13T06:14:28.644Z,99025.19
2023-04-13T06:16:56.688Z,99021.41
2023-04-13T06:19:26.343Z,99018.97
2023-04-13T06:21:56.324Z,99018.47
2023-04-13T06:24:24.256Z,99022.00
2023-04-13T06:26:53.622Z,99023.59
2023-04-13T06:29:21.666Z,99020.66
2023-04-13T06:31:49.540Z,99009.63
2023-04-13T06:34:17.883Z,99015.56
2023-04-13T06:36:45.829Z,99002.91
2023-04-13T06:39:13.827Z,99004.25
2023-04-13T06:41:41.767Z,99007.81
2023-04-13T06:44:11.367Z,99000.25
2023-04-13T06:46:39.408Z,99007.03
2023-04-13T06:49:07.517Z,99011.38
2023-04-13T06:51:35.511Z,99004.91
2023-04-13T06:54:03.850Z,98993.84
2023-04-13T06:56:31.886Z,99002.78
2023-04-13T06:59:02.632Z,99001.16
2023-04-13T07:01:32.611Z,99000.31
2023-04-13T07:04:02.517Z,98992.47
2023-04-13T07:06:32.244Z,98997.88
2023-04-13T07:09:00.765Z,99005.16
2023-04-13T07:11:28.894Z,99000.81
2023-04-13T07:13:57.032Z,99009.72
2023-04-13T07:16:25.059Z,99003.28
2023-04-13T07:18:54.328Z,98998.94
2023-04-13T07:21:22.510Z,99005.09
2023-04-13T07:23:50.673Z,98999.13
2023-04-13T07:26:18.654Z,99001.03
2023-04-13T07:28:49.756Z,98992.91
2023-04-13T07:31:17.686Z,99001.03
2023-04-13T07:33:45.632Z,98997.25
2023-04-13T07:36:14.999Z,98997.81
2023-04-13T07:38:42.942Z,98993.47
2023-04-13T07:41:10.929Z,98989.72
2023-04-13T07:43:39.008Z,98995.13
2023-04-13T07:46:11.901Z,98990.53
2023-04-13T07:48:40.006Z,98993.47
2023-04-13T07:51:08.940Z,98988.63
2023-04-13T07:53:38.307Z,98987.81
2023-04-13T07:56:07.121Z,98994.03
2023-04-13T07:58:35.061Z,98994.03
2023-04-13T08:01:03.404Z,98995.91
2023-04-13T08:03:32.350Z,98992.16
2023-04-13T08:06:00.345Z,98995.91
2023-04-13T08:08:29.411Z,98999.44
2023-04-13T08:10:58.726Z,98988.91
2023-04-13T08:13:28.788Z,98986.44
2023-04-13T08:15:57.286Z,98978.91
2023-04-13T08:18:26.872Z,98988.06
2023-04-13T08:20:55.242Z,98987.59
2023-04-13T08:23:23.330Z,98987.59
2023-04-13T08:26:18.505Z,98993.78
2023-04-13T08:28:46.834Z,99000.00
2023-04-13T08:31:14.762Z,98999.19
2023-04-13T08:33:42.773Z,99000.00
2023-04-13T08:36:11.015Z,98993.53
2023-04-13T08:38:39.054Z,98997.06
2023-04-13T08:41:07.163Z,98994.09
2023-04-13T08:43:36.673Z,99001.38
2023-04-13T08:46:05.028Z,98997.88
2023-04-13T08:48:46.108Z,98991.16
2023-04-13T08:51:20.686Z,98992.53
2023-04-13T08:53:48.647Z,98984.44
2023-04-13T08:56:16.808Z,98979.03
2023-04-13T08:58:46.632Z,98977.16
2023-04-13T09:01:15.596Z,98974.44
2023-04-13T09:03:48.539Z,98981.22
2023-04-13T09:06:16.589Z,98973.13
2023-04-13T09:08:46.414Z,98968.53
2023-04-13T09:11:14.722Z,98968.53
2023-04-13T09:13:42.665Z,98975.56
2023-04-13T09:16:12.051Z,98965.59
2023-04-13T09:18:50.214Z,98963.44
2023-04-13T09:21:18.657Z,98961.56
2023-04-13T09:23:56.670Z,98959.69
2023-04-13T09:26:24.640Z,98968.34
2023-04-13T09:28:57.180Z,98965.38
2023-04-13T09:31:26.956Z,98963.75
2023-04-13T09:33:55.057Z,98956.22
2023-04-13T09:36:24.218Z,98962.44
2023-04-13T09:38:52.420Z,98964.06
2023-04-13T09:41:29.891Z,98971.69
2023-04-13T09:43:58.290Z,98965.22
2023-04-13T09:46:27.893Z,98965.22
2023-04-13T09:49:03.312Z,98962.25
2023-04-13T09:51:41.435Z,98960.34
2023-04-13T09:54:09.889Z,98963.06
2023-04-13T09:56:45.289Z,98949.06
2023-04-13T09:59:13.346Z,98948.78
2023-04-13T10:01:42.852Z,98942.88
2023-04-13T10:04:10.918Z,98945.84
2023-04-13T10:06:40.127Z,98945.84
2023-04-13T10:09:08.133Z,98947.19
2023-04-13T10:11:38.814Z,98940.69
2023-04-13T10:14:09.967Z,98935.56
2023-04-13T10:16:46.582Z,98933.38
2023-04-13T10:19:15.601Z,98930.69
2023-04-13T10:21:45.346Z,98927.75
2023-04-13T10:24:13.551Z,98925.84
2023-04-13T10:26:42.270Z,98918.56
2023-04-13T10:29:11.699Z,98908.25
2023-04-13T10:31:39.943Z,98905.28
2023-04-13T10:34:09.892Z,98900.44
2023-04-13T10:36:41.868Z,98898.53
2023-04-13T10:39:09.933Z,98895.03
2023-04-13T10:41:38.014Z,98887.47
2023-04-13T10:44:06.478Z,98895.56
2023-04-13T10:46:35.140Z,98891.25
2023-04-13T10:49:03.494Z,98897.22
2023-04-13T10:51:42.475Z,98882.91
2023-04-13T10:54:10.855Z,98884.50
2023-04-13T10:56:38.825Z,98871.25
2023-04-13T10:59:06.853Z,98878.88
2023-04-13T11:01:35.962Z,98882.09
2023-04-13T11:04:06.791Z,98873.47
2023-04-13T11:06:38.543Z,98872.38
2023-04-13T11:09:12.550Z,98866.72
2023-04-13T11:11:43.322Z,98863.75
2023-04-13T11:14:19.226Z,98863.75
2023-04-13T11:16:49.201Z,98868.06
2023-04-13T11:19:17.310Z,98866.22
2023-04-13T11:21:46.202Z,98867.81
2023-04-13T11:24:24.771Z,98871.91
2023-04-13T11:26:52.685Z,98869.19
2023-04-13T11:29:21.754Z,98869.75
2023-04-13T11:31:49.729Z,98865.16
2023-04-13T11:34:25.857Z,98865.97
2023-04-13T11:37:01.615Z,98855.44
2023-04-13T11:39:32.318Z,98865.97
2023-04-13T11:42:06.063Z,98856.81
2023-04-13T11:44:35.708Z,98855.72
2023-04-13T11:47:03.807Z,98859.00
2023-04-13T11:49:32.047Z,98847.09
2023-04-13T11:52:00.206Z,98834.16
2023-04-13T11:54:28.787Z,98840.13
2023-04-13T11:56:58.200Z,98843.63
2023-04-13T11:59:26.443Z,98832.00
2023-04-13T12:02:02.211Z,98830.91
2023-04-13T12:04:38.337Z,98813.91
2023-04-13T12:07:11.556Z,98820.91
2023-04-13T12:15:10.179Z,98794.69
2023-04-13T12:17:49.613Z,98801.47
2023-04-13T12:20:20.786Z,98797.16
2023-04-13T12:22:57.529Z,98789.31
2023-04-13T12:25:35.456Z,98791.78
2023-04-13T12:28:06.086Z,98783.41
2023-04-13T12:30:34.054Z,98782.34
2023-04-13T12:33:02.138Z,98771.53
2023-04-13T12:35:30.145Z,98767.19
2023-04-13T12:37:58.385Z,98768.25
2023-04-13T12:40:26.552Z,98767.69
2023-04-13T12:42:54.518Z,98763.94
2023-04-13T12:45:23.880Z,98762.03
2023-04-13T12:47:52.023Z,98765.84
2023-04-13T12:50:19.972Z,98770.16
2023-04-13T12:52:47.854Z,98760.66
2023-04-13T12:55:16.000Z,98757.72
2023-04-13T12:57:44.025Z,98762.28
2023-04-13T13:00:12.879Z,98759.59
2023-04-13T13:02:42.401Z,98755.25
2023-04-13T13:05:11.025Z,98749.06
2023-04-13T13:07:38.989Z,98755.25
2023-04-13T13:10:25.728Z,98751.47
2023-04-13T13:12:56.819Z,98743.94
2023-04-13T13:17:55.546Z,98744.47
2023-04-13T13:20:26.016Z,98739.63
2023-04-13T13:22:54.238Z,98747.22
2023-04-13T13:25:22.789Z,98736.72
2023-04-13T13:30:22.781Z,98723.13
2023-04-13T13:32:50.907Z,98732.84
2023-04-13T13:35:20.876Z,98731.72
2023-04-13T13:37:48.852Z,98717.09
2023-04-13T13:40:17.751Z,98711.41
2023-04-13T13:42:51.858Z,98704.63
2023-04-13T13:45:21.017Z,98701.91
2023-04-13T13:47:52.456Z,98703.00
2023-04-13T13:50:22.430Z,98704.91
2023-04-13T13:53:02.564Z,98703.28
2023-04-13T13:55:32.001Z,98693.81
2023-04-13T14:01:51.189Z,98689.50
2023-04-13T14:04:19.301Z,98687.34
2023-04-13T14:06:49.815Z,98685.16
2023-04-13T14:09:18.965Z,98681.38
2023-04-13T14:11:46.911Z,98675.16
2023-04-13T14:14:21.619Z,98677.03
2023-04-13T14:16:50.094Z,98670.25
2023-04-13T14:19:20.845Z,98671.09
2023-04-13T14:21:50.540Z,98660.28
2023-04-13T14:24:18.515Z,98663.00
2023-04-13T14:26:46.538Z,98658.94
2023-04-13T14:29:14.563Z,98654.03
2023-04-13T14:31:42.642Z,98655.69
2023-04-13T14:34:10.627Z,98650.53
2023-04-13T14:36:39.122Z,98647.81
2023-04-13T14:39:08.813Z,98648.09
2023-04-13T14:41:37.008Z,98641.59
2023-04-13T14:44:05.055Z,98634.84
2023-04-13T14:46:33.187Z,98633.75
2023-04-13T14:49:01.462Z,98637.81
2023-04-13T14:51:31.905Z,98633.25
2023-04-13T14:53:59.894Z,98634.06
2023-04-13T14:56:30.033Z,98622.41
2023-04-13T14:58:58.311Z,98624.03
2023-04-13T15:01:26.684Z,98626.16
2023-04-13T15:03:55.156Z,98621.03
2023-04-13T15:06:25.371Z,98622.91
2023-04-13T15:08:54.299Z,98625.09
2023-04-13T15:11:22.365Z,98621.31
2023-04-13T15:13:51.781Z,98616.72
2023-04-13T15:16:19.788Z,98617.81
2023-04-13T15:18:47.836Z,98615.94
2023-04-13T15:21:16.120Z,98612.69
2023-04-13T15:23:44.103Z,98614.31
2023-04-13T15:26:17.506Z,98610.25
2023-04-13T15:28:45.414Z,98603.50
2023-04-13T15:31:14.802Z,98596.72
2023-04-13T15:33:43.069Z,98608.66
2023-04-13T15:36:13.993Z,98601.34
2023-04-13T15:38:41.957Z,98599.44
2023-04-13T15:41:11.183Z,98600.25
2023-04-13T15:43:41.165Z,98602.97
2023-04-13T15:46:09.483Z,98610.53
2023-04-13T15:48:38.941Z,98603.47
2023-04-13T15:51:07.045Z,98607.56
2023-04-13T15:53:35.101Z,98609.16
2023-04-13T15:56:03.251Z,98600.25
2023-04-13T15:58:31.444Z,98602.41
2023-04-13T16:01:03.638Z,98594.81
2023-04-13T16:03:31.880Z,98602.66
2023-04-13T16:06:01.522Z,98602.91
2023-04-13T16:08:30.038Z,98600.72
2023-04-13T16:10:58.015Z,98602.88
2023-04-13T16:13:37.568Z,98596.13
2023-04-13T16:16:15.031Z,98596.41
2023-04-13T16:18:43.232Z,98599.34
2023-04-13T16:21:13.320Z,98599.09
2023-04-13T16:23:41.330Z,98592.84
2023-04-13T16:26:09.295Z,98599.09
2023-04-13T16:28:37.374Z,98590.41
2023-04-13T16:31:05.747Z,98586.34
2023-04-13T16:33:33.773Z,98580.66
2023-04-13T16:36:01.779Z,98581.50
2023-04-13T16:38:31.332Z,98578.22
2023-04-13T16:40:59.330Z,98584.72
2023-04-13T16:43:27.473Z,98580.66
2023-04-13T16:45:55.766Z,98576.31
2023-04-13T16:48:24.190Z,98586.31
2023-04-13T16:50:59.164Z,98589.28
2023-04-13T16:53:27.826Z,98575.25
2023-04-13T16:55:57.877Z,98576.84
2023-04-13T16:58:25.840Z,98561.97
2023-04-13T17:00:54.004Z,98569.28
2023-04-13T17:03:22.330Z,98564.94
2023-04-13T17:05:50.838Z,98570.09
2023-04-13T17:08:18.850Z,98562.50
2023-04-13T17:10:47.503Z,98573.31
2023-04-13T17:13:16.765Z,98576.28
2023-04-13T17:15:45.053Z,98576.28
2023-04-13T17:18:13.333Z,98573.88
2023-04-13T17:20:41.361Z,98574.13
2023-04-13T17:23:09.413Z,98573.31
2023-04-13T17:25:41.543Z,98568.16
2023-04-13T17:28:16.894Z,98577.34
2023-04-13T17:30:44.911Z,98575.19
2023-04-13T17:33:12.970Z,98577.88
2023-04-13T17:35:40.990Z,98576.25
2023-04-13T17:38:08.919Z,98574.63
2023-04-13T17:40:36.914Z,98584.88
2023-04-13T17:43:05.710Z,98580.56
2023-04-13T17:45:35.101Z,98578.94
2023-04-13T17:48:03.434Z,98578.94
2023-04-13T17:50:32.535Z,98583.81
2023-04-13T17:53:04.141Z,98582.16
2023-04-13T17:55:33.351Z,98577.84
2023-04-13T17:58:01.280Z,98587.03
2023-04-13T18:00:29.394Z,98586.19
2023-04-13T18:03:05.370Z,98583.78
2023-04-13T18:05:33.808Z,98584.03
2023-04-13T18:08:01.789Z,98588.63
2023-04-13T18:10:29.839Z,98580.53
2023-04-13T18:13:00.016Z,98579.72
2023-04-13T18:15:28.169Z,98576.47
2023-04-13T18:17:56.381Z,98583.47
2023-04-13T18:20:26.384Z,98590.78
2023-04-13T18:22:54.344Z,98584.00
2023-04-13T18:25:22.266Z,98590.22
2023-04-13T18:28:03.432Z,98586.47
2023-04-13T18:30:31.371Z,98588.06
2023-04-13T18:32:59.485Z,98590.75
2023-04-13T18:35:28.853Z,98588.06
2023-04-13T18:37:57.083Z,98583.72
2023-04-13T18:40:25.243Z,98599.34
2023-04-13T18:43:24.082Z,98598.53
2023-04-13T18:45:52.018Z,98603.16
2023-04-13T18:48:20.017Z,98598.00
2023-04-13T18:50:49.492Z,98607.19
2023-04-13T18:53:17.919Z,98603.66
2023-04-13T18:55:49.276Z,98610.13
2023-04-13T18:58:17.291Z,98613.91
2023-04-13T19:00:45.142Z,98617.69
2023-04-13T19:03:13.380Z,98622.28
2023-04-13T19:05:41.582Z,98616.88
2023-04-13T19:08:13.804Z,98619.00
2023-04-13T19:10:42.665Z,98612.81
2023-04-13T19:13:19.548Z,98607.41
2023-04-13T19:15:47.545Z,98610.09
2023-04-13T19:18:15.497Z,98611.19
2023-04-13T19:20:43.437Z,98604.97
2023-04-13T19:23:12.973Z,98602.28
2023-04-13T19:25:41.114Z,98604.16
2023-04-13T19:28:09.119Z,98601.72
2023-04-13T19:30:37.096Z,98603.34
2023-04-13T19:33:05.780Z,98596.31
2023-04-13T19:35:34.061Z,98592.81
2023-04-13T19:38:02.066Z,98594.94
2023-04-13T19:40:31.616Z,98587.94
2023-04-13T19:45:56.275Z,98584.69
2023-04-13T19:48:24.397Z,98585.47
2023-04-13T19:50:52.356Z,98575.78
2023-04-13T19:53:20.301Z,98574.13
2023-04-13T19:55:51.256Z,98567.09
2023-04-13T19:58:25.567Z,98563.59
2023-04-13T20:00:54.480Z,98563.84
2023-04-13T20:03:22.737Z,98552.25
2023-04-13T20:05:50.859Z,98547.91
2023-04-13T20:08:18.868Z,98540.88
2023-04-13T20:10:46.819Z,98539.00
2023-04-13T20:13:16.334Z,98543.59
2023-04-13T20:15:44.436Z,98538.47
2023-04-13T20:18:12.510Z,98534.94
2023-04-13T20:20:42.451Z,98536.56
2023-04-13T20:23:10.628Z,98542.78
2023-04-13T20:25:38.659Z,98535.75
2023-04-13T20:28:06.757Z,98534.94
2023-04-13T20:30:36.113Z,98540.31
2023-04-13T20:33:06.370Z,98527.91
2023-04-13T20:35:35.176Z,98519.81
2023-04-13T20:38:04.882Z,98520.91
2023-04-13T20:40:36.341Z,98514.94
2023-04-13T20:43:06.364Z,98528.44
2023-04-13T20:45:36.690Z,98523.03
2023-04-13T20:50:35.889Z,98526.00
2023-04-13T20:53:05.048Z,98527.88
2023-04-13T20:55:33.375Z,98525.72
2023-04-13T20:58:01.744Z,98521.94
2023-04-13T21:00:29.756Z,98520.31
2023-04-13T21:03:00.179Z,98520.31
2023-04-13T21:05:28.328Z,98512.47
2023-04-13T21:07:57.192Z,98508.97
2023-04-13T21:10:25.591Z,98502.75
2023-04-13T21:12:56.074Z,98506.25
2023-04-13T21:15:24.183Z,98505.69
2023-04-13T21:17:52.596Z,98508.41
2023-04-13T21:20:22.407Z,98507.59
2023-04-13T21:22:50.354Z,98504.09
2023-04-13T21:25:18.548Z,98511.91
2023-04-13T21:27:46.449Z,98521.91
2023-04-13T21:30:14.871Z,98523.53
2023-04-13T21:32:42.974Z,98520.00
2023-04-13T21:35:11.733Z,98520.84
2023-04-13T21:37:41.236Z,98523.53
2023-04-13T21:40:09.777Z,98536.19
2023-04-13T21:42:38.136Z,98531.63
2023-04-13T21:45:06.780Z,98530.00
2023-04-13T21:47:35.212Z,98536.19
2023-04-13T21:50:03.208Z,98538.09
2023-04-13T21:52:31.348Z,98527.56
2023-04-13T21:55:01.206Z,98524.06
2023-04-13T21:57:29.209Z,98520.28
2023-04-13T21:59:57.406Z,98508.94
2023-04-13T22:02:25.646Z,98510.56
2023-04-13T22:04:53.893Z,98501.34
2023-04-13T22:07:28.617Z,98499.78
2023-04-13T22:10:09.852Z,98506.78
2023-04-13T22:12:40.841Z,98505.16
2023-04-13T22:15:12.707Z,98507.03
2023-04-13T22:17:41.111Z,98505.16
2023-04-13T22:20:10.110Z,98494.38
2023-04-13T22:22:38.090Z,98498.94
2023-04-13T22:25:06.919Z,98497.06
2023-04-13T22:27:38.905Z,98505.16
2023-04-13T22:30:08.294Z,98510.56
2023-04-13T22:32:36.337Z,98513.28
2023-04-13T22:35:04.424Z,98501.38
2023-04-13T22:37:34.093Z,98500.59
2023-04-13T22:40:02.430Z,98493.28
2023-04-13T22:42:30.710Z,98501.38
2023-04-13T22:45:00.203Z,98502.19
2023-04-13T22:47:28.191Z,98490.59
2023-04-13T22:49:56.237Z,98480.88
2023-04-13T22:52:24.154Z,98488.13
2023-04-13T22:54:52.108Z,98492.72
2023-04-13T22:57:20.082Z,98489.22
2023-04-13T22:59:48.265Z,98485.72
2023-04-13T23:02:17.666Z,98483.28
2023-04-13T23:04:46.100Z,98483.28
2023-04-13T23:07:14.184Z,98484.91
2023-04-13T23:09:42.264Z,98482.47
2023-04-13T23:12:10.260Z,98466.28
2023-04-13T23:14:38.214Z,98469.22
2023-04-13T23:17:06.257Z,98460.59
2023-04-13T23:19:35.727Z,98464.09
2023-04-13T23:22:03.670Z,98467.84
2023-04-13T23:24:31.598Z,98474.09
2023-04-13T23:26:59.671Z,98479.75
2023-04-13T23:29:27.646Z,98479.75
2023-04-13T23:31:56.557Z,98477.03
2023-04-13T23:34:24.606Z,98473.25
2023-04-13T23:36:53.985Z,98483.25
2023-04-13T23:39:23.160Z,98484.03
2023-04-13T23:44:19.131Z,98473.25
2023-04-13T23:46:47.167Z,98475.16
2023-04-13T23:49:15.098Z,98475.16
2023-04-13T23:51:43.660Z,98468.94
2023-04-13T23:54:13.047Z,98463.78
2023-04-13T23:56:41.312Z,98460.28
2023-04-13T23:59:09.261Z,98460.28
